sensor_id;sensor_type;location;lat;lon;timestamp;temperature;humidity
39849;DHT22;25518;47.878;15.914;2023-05-15T00:01:58;9.30;99.90
39849;DHT22;25518;47.878;15.914;2023-05-15T00:04:48;9.30;99.90
39849;DHT22;25518;47.878;15.914;2023-05-15T00:07:38;9.30;99.90
39849;DHT22;25518;47.878;15.914;2023-05-15T00:10:27;9.30;99.90
39849;DHT22;25518;47.878;15.914;2023-05-15T00:13:17;9.20;99.90
39849;DHT22;25518;47.878;15.914;2023-05-15T00:16:08;9.20;99.90
39849;DHT22;25518;47.878;15.914;2023-05-15T00:18:57;9.30;99.90
39849;DHT22;25518;47.878;15.914;2023-05-15T00:21:47;9.20;99.90
39849;DHT22;25518;47.878;15.914;2023-05-15T00:24:37;9.20;99.90
39849;DHT22;25518;47.878;15.914;2023-05-15T00:27:26;7.80;99.90
39849;DHT22;25518;47.878;15.914;2023-05-15T00:30:16;8.10;99.90
39849;DHT22;25518;47.878;15.914;2023-05-15T00:33:06;9.30;99.90
39849;DHT22;25518;47.878;15.914;2023-05-15T00:35:56;9.20;99.90
39849;DHT22;25518;47.878;15.914;2023-05-15T00:38:45;9.20;99.90
39849;DHT22;25518;47.878;15.914;2023-05-15T00:41:36;9.20;99.90
39849;DHT22;25518;47.878;15.914;2023-05-15T00:44:27;9.20;99.90
39849;DHT22;25518;47.878;15.914;2023-05-15T00:47:19;9.20;99.90
39849;DHT22;25518;47.878;15.914;2023-05-15T00:50:10;9.20;99.90
39849;DHT22;25518;47.878;15.914;2023-05-15T00:53:00;9.00;99.90
39849;DHT22;25518;47.878;15.914;2023-05-15T00:55:51;9.00;99.90
39849;DHT22;25518;47.878;15.914;2023-05-15T00:58:44;9.10;99.90
39849;DHT22;25518;47.878;15.914;2023-05-15T01:01:34;9.00;99.90
39849;DHT22;25518;47.878;15.914;2023-05-15T01:04:24;9.00;99.90
39849;DHT22;25518;47.878;15.914;2023-05-15T01:07:13;7.10;99.90
39849;DHT22;25518;47.878;15.914;2023-05-15T01:10:05;9.00;99.90
39849;DHT22;25518;47.878;15.914;2023-05-15T01:12:56;9.00;99.90
39849;DHT22;25518;47.878;15.914;2023-05-15T01:15:48;9.00;99.90
39849;DHT22;25518;47.878;15.914;2023-05-15T01:18:38;9.00;99.90
39849;DHT22;25518;47.878;15.914;2023-05-15T01:27:44;9.10;99.90
39849;DHT22;25518;47.878;15.914;2023-05-15T01:30:37;9.10;99.90
39849;DHT22;25518;47.878;15.914;2023-05-15T01:33:34;9.00;99.90
39849;DHT22;25518;47.878;15.914;2023-05-15T01:36:33;9.10;99.90
39849;DHT22;25518;47.878;15.914;2023-05-15T01:39:27;9.00;99.90
39849;DHT22;25518;47.878;15.914;2023-05-15T01:42:18;9.10;99.90
39849;DHT22;25518;47.878;15.914;2023-05-15T01:45:10;9.10;99.90
39849;DHT22;25518;47.878;15.914;2023-05-15T01:48:01;9.10;99.90
39849;DHT22;25518;47.878;15.914;2023-05-15T01:50:57;9.00;99.90
39849;DHT22;25518;47.878;15.914;2023-05-15T01:53:50;9.00;99.90
39849;DHT22;25518;47.878;15.914;2023-05-15T01:56:41;9.00;99.90
39849;DHT22;25518;47.878;15.914;2023-05-15T01:59:34;8.90;99.90
39849;DHT22;25518;47.878;15.914;2023-05-15T02:02:26;9.00;99.90
39849;DHT22;25518;47.878;15.914;2023-05-15T02:05:17;8.90;99.90
39849;DHT22;25518;47.878;15.914;2023-05-15T02:08:08;9.00;99.90
39849;DHT22;25518;47.878;15.914;2023-05-15T02:10:59;9.00;99.90
39849;DHT22;25518;47.878;15.914;2023-05-15T02:13:51;9.00;99.90
39849;DHT22;25518;47.878;15.914;2023-05-15T02:16:41;8.90;99.90
39849;DHT22;25518;47.878;15.914;2023-05-15T02:19:31;8.90;99.90
39849;DHT22;25518;47.878;15.914;2023-05-15T02:22:20;8.90;99.90
39849;DHT22;25518;47.878;15.914;2023-05-15T02:25:10;8.90;99.90
39849;DHT22;25518;47.878;15.914;2023-05-15T02:28:00;8.90;99.90
39849;DHT22;25518;47.878;15.914;2023-05-15T02:30:59;9.00;99.90
39849;DHT22;25518;47.878;15.914;2023-05-15T02:33:54;8.90;99.90
39849;DHT22;25518;47.878;15.914;2023-05-15T02:36:46;8.90;99.90
39849;DHT22;25518;47.878;15.914;2023-05-15T02:39:40;8.90;99.90
39849;DHT22;25518;47.878;15.914;2023-05-15T02:42:30;8.90;99.90
39849;DHT22;25518;47.878;15.914;2023-05-15T02:45:21;9.00;99.90
39849;DHT22;25518;47.878;15.914;2023-05-15T02:48:12;8.90;99.90
39849;DHT22;25518;47.878;15.914;2023-05-15T02:51:03;8.90;99.90
39849;DHT22;25518;47.878;15.914;2023-05-15T02:53:54;8.80;99.90
39849;DHT22;25518;47.878;15.914;2023-05-15T02:56:43;8.80;99.90
39849;DHT22;25518;47.878;15.914;2023-05-15T02:59:34;8.80;99.90
39849;DHT22;25518;47.878;15.914;2023-05-15T03:19:18;8.90;99.90
39849;DHT22;25518;47.878;15.914;2023-05-15T03:22:08;8.90;99.90
39849;DHT22;25518;47.878;15.914;2023-05-15T03:24:58;8.90;99.90
39849;DHT22;25518;47.878;15.914;2023-05-15T03:27:48;8.80;99.90
39849;DHT22;25518;47.878;15.914;2023-05-15T03:30:38;8.80;99.90
39849;DHT22;25518;47.878;15.914;2023-05-15T03:33:28;8.90;99.90
39849;DHT22;25518;47.878;15.914;2023-05-15T03:36:18;8.10;99.90
39849;DHT22;25518;47.878;15.914;2023-05-15T03:39:07;8.80;99.90
39849;DHT22;25518;47.878;15.914;2023-05-15T03:41:57;8.90;99.90
39849;DHT22;25518;47.878;15.914;2023-05-15T03:44:47;8.80;99.90
39849;DHT22;25518;47.878;15.914;2023-05-15T03:47:36;8.90;99.90
39849;DHT22;25518;47.878;15.914;2023-05-15T03:50:26;8.90;99.90
39849;DHT22;25518;47.878;15.914;2023-05-15T03:53:16;8.90;99.90
39849;DHT22;25518;47.878;15.914;2023-05-15T03:56:05;9.00;99.90
39849;DHT22;25518;47.878;15.914;2023-05-15T03:58:55;9.10;99.90
39849;DHT22;25518;47.878;15.914;2023-05-15T04:01:44;6.80;99.90
39849;DHT22;25518;47.878;15.914;2023-05-15T04:04:34;8.80;99.90
39849;DHT22;25518;47.878;15.914;2023-05-15T04:07:23;7.90;99.90
39849;DHT22;25518;47.878;15.914;2023-05-15T04:10:13;8.90;99.90
39849;DHT22;25518;47.878;15.914;2023-05-15T04:13:03;8.90;99.90
39849;DHT22;25518;47.878;15.914;2023-05-15T04:15:52;9.00;99.90
39849;DHT22;25518;47.878;15.914;2023-05-15T04:18:43;9.00;99.90
39849;DHT22;25518;47.878;15.914;2023-05-15T04:21:33;9.10;99.90
39849;DHT22;25518;47.878;15.914;2023-05-15T04:24:22;9.00;99.90
39849;DHT22;25518;47.878;15.914;2023-05-15T04:27:12;9.10;99.90
39849;DHT22;25518;47.878;15.914;2023-05-15T04:30:03;9.20;99.90
39849;DHT22;25518;47.878;15.914;2023-05-15T04:32:52;9.20;99.90
39849;DHT22;25518;47.878;15.914;2023-05-15T04:35:42;9.40;99.90
39849;DHT22;25518;47.878;15.914;2023-05-15T04:38:32;9.40;99.90
39849;DHT22;25518;47.878;15.914;2023-05-15T04:41:22;9.50;99.90
39849;DHT22;25518;47.878;15.914;2023-05-15T04:44:11;9.50;99.90
39849;DHT22;25518;47.878;15.914;2023-05-15T04:47:01;9.60;99.90
39849;DHT22;25518;47.878;15.914;2023-05-15T04:49:50;9.50;99.90
39849;DHT22;25518;47.878;15.914;2023-05-15T04:52:40;7.50;99.90
39849;DHT22;25518;47.878;15.914;2023-05-15T04:55:32;9.50;99.90
39849;DHT22;25518;47.878;15.914;2023-05-15T04:58:21;9.60;99.90
39849;DHT22;25518;47.878;15.914;2023-05-15T05:01:11;9.60;99.90
39849;DHT22;25518;47.878;15.914;2023-05-15T05:04:01;9.80;99.90
39849;DHT22;25518;47.878;15.914;2023-05-15T05:06:51;9.90;99.90
39849;DHT22;25518;47.878;15.914;2023-05-15T05:09:41;9.80;99.90
39849;DHT22;25518;47.878;15.914;2023-05-15T05:12:30;9.80;99.90
39849;DHT22;25518;47.878;15.914;2023-05-15T05:15:20;9.80;99.90
39849;DHT22;25518;47.878;15.914;2023-05-15T05:18:10;9.80;99.90
39849;DHT22;25518;47.878;15.914;2023-05-15T05:21:00;9.90;99.90
39849;DHT22;25518;47.878;15.914;2023-05-15T05:23:50;10.00;99.90
39849;DHT22;25518;47.878;15.914;2023-05-15T05:26:42;10.00;99.90
39849;DHT22;25518;47.878;15.914;2023-05-15T05:29:32;10.00;99.90
39849;DHT22;25518;47.878;15.914;2023-05-15T05:32:22;10.20;99.90
39849;DHT22;25518;47.878;15.914;2023-05-15T05:35:12;10.10;99.90
39849;DHT22;25518;47.878;15.914;2023-05-15T05:38:02;10.10;99.90
39849;DHT22;25518;47.878;15.914;2023-05-15T05:40:52;10.10;99.90
39849;DHT22;25518;47.878;15.914;2023-05-15T05:43:42;10.10;99.90
39849;DHT22;25518;47.878;15.914;2023-05-15T05:46:31;10.20;99.90
39849;DHT22;25518;47.878;15.914;2023-05-15T05:49:21;10.20;99.90
39849;DHT22;25518;47.878;15.914;2023-05-15T05:52:11;10.30;99.90
39849;DHT22;25518;47.878;15.914;2023-05-15T05:55:00;10.20;99.90
39849;DHT22;25518;47.878;15.914;2023-05-15T05:57:49;10.00;99.90
39849;DHT22;25518;47.878;15.914;2023-05-15T06:00:39;10.30;99.90
39849;DHT22;25518;47.878;15.914;2023-05-15T06:03:29;10.40;99.90
39849;DHT22;25518;47.878;15.914;2023-05-15T06:06:19;10.60;99.90
39849;DHT22;25518;47.878;15.914;2023-05-15T06:09:09;10.70;99.90
39849;DHT22;25518;47.878;15.914;2023-05-15T06:11:59;10.60;99.90
39849;DHT22;25518;47.878;15.914;2023-05-15T06:14:49;10.60;99.90
39849;DHT22;25518;47.878;15.914;2023-05-15T06:17:39;10.70;99.90
39849;DHT22;25518;47.878;15.914;2023-05-15T06:20:28;10.70;99.90
39849;DHT22;25518;47.878;15.914;2023-05-15T06:23:18;10.60;99.90
39849;DHT22;25518;47.878;15.914;2023-05-15T06:26:08;10.70;99.90
39849;DHT22;25518;47.878;15.914;2023-05-15T06:28:58;10.80;99.90
39849;DHT22;25518;47.878;15.914;2023-05-15T06:31:47;10.90;99.90
39849;DHT22;25518;47.878;15.914;2023-05-15T06:34:37;10.90;99.90
39849;DHT22;25518;47.878;15.914;2023-05-15T06:37:26;10.80;99.90
39849;DHT22;25518;47.878;15.914;2023-05-15T06:40:17;11.00;99.90
39849;DHT22;25518;47.878;15.914;2023-05-15T06:43:06;10.90;99.90
39849;DHT22;25518;47.878;15.914;2023-05-15T06:45:56;10.80;99.90
39849;DHT22;25518;47.878;15.914;2023-05-15T06:48:46;10.80;99.90
39849;DHT22;25518;47.878;15.914;2023-05-15T06:51:36;10.70;99.90
39849;DHT22;25518;47.878;15.914;2023-05-15T06:54:26;10.60;99.90
39849;DHT22;25518;47.878;15.914;2023-05-15T06:57:15;10.70;99.90
39849;DHT22;25518;47.878;15.914;2023-05-15T07:00:05;10.90;99.90
39849;DHT22;25518;47.878;15.914;2023-05-15T07:02:55;11.00;99.90
39849;DHT22;25518;47.878;15.914;2023-05-15T07:05:45;11.00;99.90
39849;DHT22;25518;47.878;15.914;2023-05-15T07:08:34;11.10;99.90
39849;DHT22;25518;47.878;15.914;2023-05-15T07:11:26;11.20;99.90
39849;DHT22;25518;47.878;15.914;2023-05-15T07:14:42;11.30;99.90
39849;DHT22;25518;47.878;15.914;2023-05-15T07:17:46;11.30;99.90
39849;DHT22;25518;47.878;15.914;2023-05-15T07:20:35;11.20;99.90
39849;DHT22;25518;47.878;15.914;2023-05-15T07:23:26;11.30;99.90
39849;DHT22;25518;47.878;15.914;2023-05-15T07:26:40;11.20;99.90
39849;DHT22;25518;47.878;15.914;2023-05-15T07:29:29;11.20;99.90
39849;DHT22;25518;47.878;15.914;2023-05-15T07:32:19;11.30;99.90
39849;DHT22;25518;47.878;15.914;2023-05-15T07:35:09;11.50;99.90
39849;DHT22;25518;47.878;15.914;2023-05-15T07:37:59;11.50;99.90
39849;DHT22;25518;47.878;15.914;2023-05-15T07:40:49;11.50;99.90
39849;DHT22;25518;47.878;15.914;2023-05-15T07:43:39;11.70;99.90
39849;DHT22;25518;47.878;15.914;2023-05-15T07:46:28;11.90;99.90
39849;DHT22;25518;47.878;15.914;2023-05-15T07:49:18;11.70;99.90
39849;DHT22;25518;47.878;15.914;2023-05-15T07:52:07;11.60;99.90
39849;DHT22;25518;47.878;15.914;2023-05-15T07:54:58;11.30;99.90
39849;DHT22;25518;47.878;15.914;2023-05-15T07:57:48;11.50;99.90
39849;DHT22;25518;47.878;15.914;2023-05-15T08:00:37;11.50;99.90
39849;DHT22;25518;47.878;15.914;2023-05-15T08:03:27;11.70;99.90
39849;DHT22;25518;47.878;15.914;2023-05-15T08:06:17;11.60;99.90
39849;DHT22;25518;47.878;15.914;2023-05-15T08:09:07;11.60;99.90
39849;DHT22;25518;47.878;15.914;2023-05-15T08:12:15;11.60;99.90
39849;DHT22;25518;47.878;15.914;2023-05-15T08:15:09;11.50;99.90
39849;DHT22;25518;47.878;15.914;2023-05-15T08:17:59;11.30;99.90
39849;DHT22;25518;47.878;15.914;2023-05-15T08:20:50;11.40;99.90
39849;DHT22;25518;47.878;15.914;2023-05-15T08:23:40;11.50;99.90
39849;DHT22;25518;47.878;15.914;2023-05-15T08:26:29;11.60;99.90
39849;DHT22;25518;47.878;15.914;2023-05-15T08:29:19;11.70;99.90
39849;DHT22;25518;47.878;15.914;2023-05-15T08:32:08;11.80;99.90
39849;DHT22;25518;47.878;15.914;2023-05-15T08:34:59;11.50;99.90
39849;DHT22;25518;47.878;15.914;2023-05-15T08:37:49;12.10;99.90
39849;DHT22;25518;47.878;15.914;2023-05-15T08:40:40;12.10;99.90
39849;DHT22;25518;47.878;15.914;2023-05-15T08:43:32;12.70;99.90
39849;DHT22;25518;47.878;15.914;2023-05-15T08:46:24;12.90;99.90
39849;DHT22;25518;47.878;15.914;2023-05-15T08:49:24;12.90;99.90
39849;DHT22;25518;47.878;15.914;2023-05-15T08:52:15;12.80;99.90
39849;DHT22;25518;47.878;15.914;2023-05-15T08:55:05;12.80;99.90
39849;DHT22;25518;47.878;15.914;2023-05-15T08:57:55;12.90;99.90
39849;DHT22;25518;47.878;15.914;2023-05-15T09:00:45;12.90;99.90
39849;DHT22;25518;47.878;15.914;2023-05-15T09:03:35;12.90;99.90
39849;DHT22;25518;47.878;15.914;2023-05-15T09:06:24;12.90;99.90
39849;DHT22;25518;47.878;15.914;2023-05-15T09:09:15;13.00;99.90
39849;DHT22;25518;47.878;15.914;2023-05-15T09:12:10;13.10;99.90
39849;DHT22;25518;47.878;15.914;2023-05-15T09:15:08;13.20;99.90
39849;DHT22;25518;47.878;15.914;2023-05-15T09:18:00;13.10;99.90
39849;DHT22;25518;47.878;15.914;2023-05-15T09:20:49;13.30;99.90
39849;DHT22;25518;47.878;15.914;2023-05-15T09:23:40;13.90;99.90
39849;DHT22;25518;47.878;15.914;2023-05-15T09:26:29;13.60;99.90
39849;DHT22;25518;47.878;15.914;2023-05-15T09:29:19;13.20;99.90
39849;DHT22;25518;47.878;15.914;2023-05-15T09:32:11;13.10;99.90
39849;DHT22;25518;47.878;15.914;2023-05-15T09:35:01;13.10;99.90
39849;DHT22;25518;47.878;15.914;2023-05-15T09:37:57;13.20;99.90
39849;DHT22;25518;47.878;15.914;2023-05-15T09:40:48;13.50;99.90
39849;DHT22;25518;47.878;15.914;2023-05-15T09:43:39;13.50;99.90
39849;DHT22;25518;47.878;15.914;2023-05-15T09:46:33;13.30;99.90
39849;DHT22;25518;47.878;15.914;2023-05-15T09:49:27;13.00;99.90
39849;DHT22;25518;47.878;15.914;2023-05-15T09:52:18;12.60;99.90
39849;DHT22;25518;47.878;15.914;2023-05-15T09:55:08;12.70;99.90
39849;DHT22;25518;47.878;15.914;2023-05-15T09:58:10;12.90;99.90
39849;DHT22;25518;47.878;15.914;2023-05-15T10:01:00;13.00;99.90
39849;DHT22;25518;47.878;15.914;2023-05-15T10:03:59;13.10;99.90
39849;DHT22;25518;47.878;15.914;2023-05-15T10:06:49;13.30;99.90
39849;DHT22;25518;47.878;15.914;2023-05-15T10:09:38;13.30;99.90
39849;DHT22;25518;47.878;15.914;2023-05-15T10:12:29;13.50;99.90
39849;DHT22;25518;47.878;15.914;2023-05-15T10:15:21;13.80;99.90
39849;DHT22;25518;47.878;15.914;2023-05-15T10:18:12;13.80;99.90
39849;DHT22;25518;47.878;15.914;2023-05-15T10:21:03;13.70;99.90
39849;DHT22;25518;47.878;15.914;2023-05-15T10:23:54;13.60;99.90
39849;DHT22;25518;47.878;15.914;2023-05-15T10:26:48;13.70;99.90
39849;DHT22;25518;47.878;15.914;2023-05-15T10:29:39;13.70;99.90
39849;DHT22;25518;47.878;15.914;2023-05-15T10:32:30;13.80;99.90
39849;DHT22;25518;47.878;15.914;2023-05-15T10:35:21;13.90;99.90
39849;DHT22;25518;47.878;15.914;2023-05-15T10:38:11;13.70;99.90
39849;DHT22;25518;47.878;15.914;2023-05-15T10:41:03;14.00;99.90
39849;DHT22;25518;47.878;15.914;2023-05-15T10:43:57;14.00;99.90
39849;DHT22;25518;47.878;15.914;2023-05-15T10:46:49;14.30;99.90
39849;DHT22;25518;47.878;15.914;2023-05-15T10:49:40;14.00;99.90
39849;DHT22;25518;47.878;15.914;2023-05-15T10:52:31;14.10;99.90
39849;DHT22;25518;47.878;15.914;2023-05-15T10:55:22;14.10;99.90
39849;DHT22;25518;47.878;15.914;2023-05-15T10:58:12;14.40;99.90
39849;DHT22;25518;47.878;15.914;2023-05-15T11:01:02;14.40;99.90
39849;DHT22;25518;47.878;15.914;2023-05-15T11:04:11;14.40;99.90
39849;DHT22;25518;47.878;15.914;2023-05-15T11:07:17;14.40;99.90
39849;DHT22;25518;47.878;15.914;2023-05-15T11:13:17;14.20;99.90
39849;DHT22;25518;47.878;15.914;2023-05-15T11:16:06;14.60;99.90
39849;DHT22;25518;47.878;15.914;2023-05-15T11:18:59;14.40;99.90
39849;DHT22;25518;47.878;15.914;2023-05-15T11:21:57;14.30;99.90
39849;DHT22;25518;47.878;15.914;2023-05-15T11:27:40;14.00;99.90
39849;DHT22;25518;47.878;15.914;2023-05-15T11:30:36;14.20;99.90
39849;DHT22;25518;47.878;15.914;2023-05-15T11:33:29;14.50;99.90
39849;DHT22;25518;47.878;15.914;2023-05-15T11:36:22;14.60;99.90
39849;DHT22;25518;47.878;15.914;2023-05-15T11:39:12;14.60;99.90
39849;DHT22;25518;47.878;15.914;2023-05-15T11:42:10;14.90;99.90
39849;DHT22;25518;47.878;15.914;2023-05-15T11:45:01;15.00;99.90
39849;DHT22;25518;47.878;15.914;2023-05-15T11:47:50;15.10;99.90
39849;DHT22;25518;47.878;15.914;2023-05-15T11:50:41;15.10;99.90
39849;DHT22;25518;47.878;15.914;2023-05-15T11:53:32;15.10;99.90
39849;DHT22;25518;47.878;15.914;2023-05-15T11:56:24;14.80;99.90
39849;DHT22;25518;47.878;15.914;2023-05-15T11:59:16;14.90;99.90
39849;DHT22;25518;47.878;15.914;2023-05-15T12:02:05;15.40;99.90
39849;DHT22;25518;47.878;15.914;2023-05-15T12:04:55;15.10;99.90
39849;DHT22;25518;47.878;15.914;2023-05-15T12:07:45;14.80;99.90
39849;DHT22;25518;47.878;15.914;2023-05-15T12:10:40;15.20;99.90
39849;DHT22;25518;47.878;15.914;2023-05-15T12:13:31;14.90;99.90
39849;DHT22;25518;47.878;15.914;2023-05-15T12:16:29;14.80;99.90
39849;DHT22;25518;47.878;15.914;2023-05-15T12:19:18;14.40;99.90
39849;DHT22;25518;47.878;15.914;2023-05-15T12:22:11;14.80;99.90
39849;DHT22;25518;47.878;15.914;2023-05-15T12:25:01;15.00;99.90
39849;DHT22;25518;47.878;15.914;2023-05-15T12:27:51;15.10;99.90
39849;DHT22;25518;47.878;15.914;2023-05-15T12:30:42;15.20;99.90
39849;DHT22;25518;47.878;15.914;2023-05-15T12:33:32;15.60;99.90
39849;DHT22;25518;47.878;15.914;2023-05-15T12:36:22;16.10;99.90
39849;DHT22;25518;47.878;15.914;2023-05-15T12:39:12;16.00;99.90
39849;DHT22;25518;47.878;15.914;2023-05-15T12:42:02;16.30;99.90
39849;DHT22;25518;47.878;15.914;2023-05-15T12:44:54;16.10;99.90
39849;DHT22;25518;47.878;15.914;2023-05-15T12:47:47;16.00;99.90
39849;DHT22;25518;47.878;15.914;2023-05-15T12:50:36;15.90;99.90
39849;DHT22;25518;47.878;15.914;2023-05-15T12:53:30;15.40;99.90
39849;DHT22;25518;47.878;15.914;2023-05-15T12:56:22;15.50;99.90
39849;DHT22;25518;47.878;15.914;2023-05-15T12:59:12;15.70;99.90
39849;DHT22;25518;47.878;15.914;2023-05-15T13:02:01;15.60;99.90
39849;DHT22;25518;47.878;15.914;2023-05-15T13:04:51;16.70;99.90
39849;DHT22;25518;47.878;15.914;2023-05-15T13:07:43;15.90;99.90
39849;DHT22;25518;47.878;15.914;2023-05-15T13:10:35;16.10;99.90
39849;DHT22;25518;47.878;15.914;2023-05-15T13:13:45;16.20;99.90
39849;DHT22;25518;47.878;15.914;2023-05-15T13:16:35;16.50;99.90
39849;DHT22;25518;47.878;15.914;2023-05-15T13:19:25;16.30;99.90
39849;DHT22;25518;47.878;15.914;2023-05-15T13:22:15;16.00;99.90
39849;DHT22;25518;47.878;15.914;2023-05-15T13:25:05;15.90;99.90
39849;DHT22;25518;47.878;15.914;2023-05-15T13:27:58;16.30;99.90
39849;DHT22;25518;47.878;15.914;2023-05-15T13:30:48;16.10;99.90
39849;DHT22;25518;47.878;15.914;2023-05-15T13:33:38;16.10;99.90
39849;DHT22;25518;47.878;15.914;2023-05-15T13:36:28;15.90;99.90
39849;DHT22;25518;47.878;15.914;2023-05-15T13:39:18;15.70;99.90
39849;DHT22;25518;47.878;15.914;2023-05-15T13:42:07;15.70;99.90
39849;DHT22;25518;47.878;15.914;2023-05-15T13:44:57;15.70;99.90
39849;DHT22;25518;47.878;15.914;2023-05-15T13:47:46;15.70;99.90
39849;DHT22;25518;47.878;15.914;2023-05-15T13:50:36;15.50;99.90
39849;DHT22;25518;47.878;15.914;2023-05-15T13:53:26;15.40;99.90
39849;DHT22;25518;47.878;15.914;2023-05-15T13:56:16;15.30;99.90
39849;DHT22;25518;47.878;15.914;2023-05-15T13:59:05;15.30;99.90
39849;DHT22;25518;47.878;15.914;2023-05-15T14:01:55;15.30;99.90
39849;DHT22;25518;47.878;15.914;2023-05-15T14:04:45;15.00;99.90
39849;DHT22;25518;47.878;15.914;2023-05-15T14:07:35;15.20;99.90
39849;DHT22;25518;47.878;15.914;2023-05-15T14:10:25;14.90;99.90
39849;DHT22;25518;47.878;15.914;2023-05-15T14:13:15;15.00;99.90
39849;DHT22;25518;47.878;15.914;2023-05-15T14:16:05;15.00;99.90
39849;DHT22;25518;47.878;15.914;2023-05-15T14:18:55;15.10;99.90
39849;DHT22;25518;47.878;15.914;2023-05-15T14:21:44;15.20;99.90
39849;DHT22;25518;47.878;15.914;2023-05-15T14:24:34;15.30;99.90
39849;DHT22;25518;47.878;15.914;2023-05-15T14:27:24;15.40;99.90
39849;DHT22;25518;47.878;15.914;2023-05-15T14:30:13;15.40;99.90
39849;DHT22;25518;47.878;15.914;2023-05-15T14:33:03;15.30;99.90
39849;DHT22;25518;47.878;15.914;2023-05-15T14:35:53;15.20;99.90
39849;DHT22;25518;47.878;15.914;2023-05-15T14:38:43;15.30;99.90
39849;DHT22;25518;47.878;15.914;2023-05-15T14:41:35;15.30;99.90
39849;DHT22;25518;47.878;15.914;2023-05-15T14:44:24;15.40;99.90
39849;DHT22;25518;47.878;15.914;2023-05-15T14:47:14;15.40;99.90
39849;DHT22;25518;47.878;15.914;2023-05-15T14:50:05;15.50;99.90
39849;DHT22;25518;47.878;15.914;2023-05-15T14:52:55;15.10;99.90
39849;DHT22;25518;47.878;15.914;2023-05-15T14:55:45;14.90;99.90
39849;DHT22;25518;47.878;15.914;2023-05-15T14:58:34;14.90;99.90
39849;DHT22;25518;47.878;15.914;2023-05-15T15:01:24;14.60;99.90
39849;DHT22;25518;47.878;15.914;2023-05-15T15:04:14;14.60;99.90
39849;DHT22;25518;47.878;15.914;2023-05-15T15:07:03;14.50;99.90
39849;DHT22;25518;47.878;15.914;2023-05-15T15:09:53;14.50;99.90
39849;DHT22;25518;47.878;15.914;2023-05-15T15:12:43;14.50;99.90
39849;DHT22;25518;47.878;15.914;2023-05-15T15:15:33;14.50;99.90
39849;DHT22;25518;47.878;15.914;2023-05-15T15:18:23;14.60;99.90
39849;DHT22;25518;47.878;15.914;2023-05-15T15:21:12;14.70;99.90
39849;DHT22;25518;47.878;15.914;2023-05-15T15:24:02;14.70;99.90
39849;DHT22;25518;47.878;15.914;2023-05-15T15:26:52;14.60;99.90
39849;DHT22;25518;47.878;15.914;2023-05-15T15:29:41;14.90;99.90
39849;DHT22;25518;47.878;15.914;2023-05-15T15:32:31;15.30;99.90
39849;DHT22;25518;47.878;15.914;2023-05-15T15:35:21;15.30;99.90
39849;DHT22;25518;47.878;15.914;2023-05-15T15:38:11;15.50;99.90
39849;DHT22;25518;47.878;15.914;2023-05-15T15:41:02;15.70;99.90
39849;DHT22;25518;47.878;15.914;2023-05-15T15:43:54;15.70;99.90
39849;DHT22;25518;47.878;15.914;2023-05-15T15:46:43;15.60;99.90
39849;DHT22;25518;47.878;15.914;2023-05-15T15:49:33;15.70;99.90
39849;DHT22;25518;47.878;15.914;2023-05-15T15:52:23;15.90;99.90
39849;DHT22;25518;47.878;15.914;2023-05-15T15:55:13;16.10;99.90
39849;DHT22;25518;47.878;15.914;2023-05-15T15:58:03;16.20;99.90
39849;DHT22;25518;47.878;15.914;2023-05-15T16:00:52;16.30;99.90
39849;DHT22;25518;47.878;15.914;2023-05-15T16:03:42;16.00;99.90
39849;DHT22;25518;47.878;15.914;2023-05-15T16:06:32;15.70;99.90
39849;DHT22;25518;47.878;15.914;2023-05-15T16:09:21;15.60;99.90
39849;DHT22;25518;47.878;15.914;2023-05-15T16:12:11;15.60;99.90
39849;DHT22;25518;47.878;15.914;2023-05-15T16:15:01;15.60;99.90
39849;DHT22;25518;47.878;15.914;2023-05-15T16:17:51;15.50;99.90
39849;DHT22;25518;47.878;15.914;2023-05-15T16:20:41;15.60;99.90
39849;DHT22;25518;47.878;15.914;2023-05-15T16:23:34;16.00;99.90
39849;DHT22;25518;47.878;15.914;2023-05-15T16:26:24;16.50;99.90
39849;DHT22;25518;47.878;15.914;2023-05-15T16:29:14;16.50;99.90
39849;DHT22;25518;47.878;15.914;2023-05-15T16:32:04;16.30;99.90
39849;DHT22;25518;47.878;15.914;2023-05-15T16:34:54;16.20;99.90
39849;DHT22;25518;47.878;15.914;2023-05-15T16:37:44;16.00;99.90
39849;DHT22;25518;47.878;15.914;2023-05-15T16:40:33;15.90;99.90
39849;DHT22;25518;47.878;15.914;2023-05-15T16:43:23;15.80;99.90
39849;DHT22;25518;47.878;15.914;2023-05-15T16:46:12;15.60;99.90
39849;DHT22;25518;47.878;15.914;2023-05-15T16:49:02;15.60;99.90
39849;DHT22;25518;47.878;15.914;2023-05-15T16:51:53;16.10;99.90
39849;DHT22;25518;47.878;15.914;2023-05-15T16:54:42;16.40;99.90
39849;DHT22;25518;47.878;15.914;2023-05-15T16:57:32;16.50;99.90
39849;DHT22;25518;47.878;15.914;2023-05-15T17:00:21;16.40;99.90
39849;DHT22;25518;47.878;15.914;2023-05-15T17:03:11;16.40;99.90
39849;DHT22;25518;47.878;15.914;2023-05-15T17:06:01;16.80;99.90
39849;DHT22;25518;47.878;15.914;2023-05-15T17:08:52;17.10;99.90
39849;DHT22;25518;47.878;15.914;2023-05-15T17:11:42;17.30;99.90
39849;DHT22;25518;47.878;15.914;2023-05-15T17:14:32;17.70;99.90
39849;DHT22;25518;47.878;15.914;2023-05-15T17:17:22;17.60;99.90
39849;DHT22;25518;47.878;15.914;2023-05-15T17:20:14;17.20;99.90
39849;DHT22;25518;47.878;15.914;2023-05-15T17:23:04;16.70;99.90
39849;DHT22;25518;47.878;15.914;2023-05-15T17:25:54;16.30;99.90
39849;DHT22;25518;47.878;15.914;2023-05-15T17:28:43;16.00;99.90
39849;DHT22;25518;47.878;15.914;2023-05-15T17:31:33;15.90;99.90
39849;DHT22;25518;47.878;15.914;2023-05-15T17:34:25;15.60;99.90
39849;DHT22;25518;47.878;15.914;2023-05-15T17:37:15;15.30;99.90
39849;DHT22;25518;47.878;15.914;2023-05-15T17:40:04;15.10;99.90
39849;DHT22;25518;47.878;15.914;2023-05-15T17:42:55;15.00;99.90
39849;DHT22;25518;47.878;15.914;2023-05-15T17:45:44;14.80;99.90
39849;DHT22;25518;47.878;15.914;2023-05-15T17:48:34;14.70;99.90
39849;DHT22;25518;47.878;15.914;2023-05-15T17:51:24;14.50;99.90
39849;DHT22;25518;47.878;15.914;2023-05-15T17:54:13;14.30;99.90
39849;DHT22;25518;47.878;15.914;2023-05-15T17:57:03;14.00;99.90
39849;DHT22;25518;47.878;15.914;2023-05-15T17:59:53;12.60;99.90
39849;DHT22;25518;47.878;15.914;2023-05-15T18:02:43;13.80;99.90
39849;DHT22;25518;47.878;15.914;2023-05-15T18:05:33;13.50;99.90
39849;DHT22;25518;47.878;15.914;2023-05-15T18:08:22;13.40;99.90
39849;DHT22;25518;47.878;15.914;2023-05-15T18:11:13;13.10;99.90
39849;DHT22;25518;47.878;15.914;2023-05-15T18:14:03;13.00;99.90
39849;DHT22;25518;47.878;15.914;2023-05-15T18:16:53;12.80;99.90